X  SluitMETAR luchtvaart weer gegevens      EBBR Brussels Airport

Temperatuur

27°C Temperatuur

17°C Dauwpunt

54% Vochtigheid



Wind

 3 KM/U

 2 MPH

 1 M/S

 2 KTS



Kalm
Pal Noord
Huidig weer

Helder Helder
Luchtdruk 1013.92 (hPa) - 29.94 (in)
Zicht 6.2 (mi) - 10 (km)
Vliegveld
Vliegveld code EBBR

Locatie Brussels Airport 14 (km)

Metar:
EBBR 100750Z VRB02KT CAVOK 27/17 Q1014 NOSIG

Tijd: 10-08-2020 09:50